Airport ID:KSMD
Update Time (UTC):14/04/2021 11:26
Wind Speed (Knots):4
Wind Direction (Magnetic):180
Temperature (°C):5.1
Dew Point (°C):1
Humidity (%):74.8
Altimeter (inHg):30.13
Density Altitude (Feet):
Visibility (Miles):10
Clouds (Hundreds of feet):CLR
Present Weather:
METAR:METAR KSMD 141125Z AUTO 18004KT 10SM CLR 05/01 A3013 RMK A01

The data displayed is for advisory purposes only and is not to be used for flight planning or operations.